Time;durP1;ratioP1;P1;durP2;ratioP2;P2;SDS_P1;SDS_P2;PMS_P1;PMS_P2;Temp;Humidity;BMP_temperature;BMP_pressure;BME280_temperature;BME280_humidity;BME280_pressure;Samples;Min_cycle;Max_cycle;Signal;HPM_P1;HPM_P2
2022/03/19 00:01:47;;;;;;;;;8.75;7.75;;;;;;;;5074959;28;45280;-80
2022/03/19 00:04:12;;;;;;;;;7.00;7.00;;;;;;;;5080560;28;45994;-79
2022/03/19 00:06:39;;;;;;;;;6.00;6.00;;;;;;;;5076076;28;45296;-77
2022/03/19 00:09:05;;;;;;;;;1.00;1.00;;;;;;;;5073068;28;45386;-78
2022/03/19 00:11:31;;;;;;;;;7.75;5.75;;;;;;;;5072587;28;45469;-81
2022/03/19 00:13:56;;;;;;;;;4.25;4.25;;;;;;;;5072581;28;46097;-81
2022/03/19 00:16:21;;;;;;;;;6.00;4.25;;;;;;;;5075227;28;45362;-81
2022/03/19 00:18:47;;;;;;;;;8.25;7.25;;;;;;;;5073794;28;45367;-80
2022/03/19 00:21:12;;;;;;;;;7.50;5.00;;;;;;;;5071801;28;47776;-80
2022/03/19 00:23:37;;;;;;;;;7.50;5.00;;;;;;;;5072580;28;46826;-79
2022/03/19 00:26:03;;;;;;;;;4.50;4.50;;;;;;;;5072631;28;45433;-79
2022/03/19 00:28:28;;;;;;;;;5.75;5.75;;;;;;;;5074682;28;45216;-80
2022/03/19 00:30:53;;;;;;;;;9.25;6.75;;;;;;;;5081628;28;45284;-79
2022/03/19 00:33:18;;;;;;;;;5.00;4.50;;;;;;;;5079220;28;45978;-79
2022/03/19 00:35:44;;;;;;;;;8.00;6.00;;;;;;;;5075152;28;45487;-80
2022/03/19 00:38:09;;;;;;;;;5.75;5.25;;;;;;;;5075307;28;45348;-79
2022/03/19 00:40:35;;;;;;;;;6.00;5.75;;;;;;;;5073567;28;45252;-81
2022/03/19 00:43:01;;;;;;;;;2.50;2.50;;;;;;;;5075800;28;47049;-82
2022/03/19 00:45:27;;;;;;;;;3.75;3.75;;;;;;;;5072077;28;45390;-82
2022/03/19 00:47:52;;;;;;;;;3.75;3.75;;;;;;;;5072714;28;45554;-82
2022/03/19 00:50:17;;;;;;;;;5.00;4.25;;;;;;;;5072439;28;45524;-82
2022/03/19 00:52:43;;;;;;;;;7.00;6.00;;;;;;;;5073014;28;46522;-83
2022/03/19 00:55:09;;;;;;;;;5.75;5.00;;;;;;;;5075328;28;45365;-82
2022/03/19 00:57:41;;;;;;;;;4.75;3.00;;;;;;;;5072014;28;46094;-82
2022/03/19 01:00:06;;;;;;;;;4.00;4.00;;;;;;;;5072258;28;45460;-82
2022/03/19 01:02:32;;;;;;;;;4.00;4.00;;;;;;;;5056301;28;45952;-82
2022/03/19 01:04:57;;;;;;;;;3.50;3.00;;;;;;;;5053319;28;45918;-81
2022/03/19 01:07:22;;;;;;;;;3.75;3.25;;;;;;;;5072351;28;45536;-81
2022/03/19 01:09:47;;;;;;;;;4.00;4.00;;;;;;;;5073558;28;45592;-83
2022/03/19 01:12:12;;;;;;;;;3.00;3.00;;;;;;;;5067578;27;45399;-83
2022/03/19 01:14:38;;;;;;;;;3.25;3.25;;;;;;;;5072946;28;45492;-85
2022/03/19 01:17:03;;;;;;;;;3.00;3.00;;;;;;;;5072217;28;45382;-85
2022/03/19 01:22:13;;;;;;;;;5.00;2.75;;;;;;;;5077491;28;45897;-86
2022/03/19 01:24:38;;;;;;;;;3.25;3.00;;;;;;;;5076152;28;45427;-83
2022/03/19 01:27:03;;;;;;;;;3.75;3.50;;;;;;;;5076095;28;45704;-85
2022/03/19 01:29:28;;;;;;;;;3.00;3.00;;;;;;;;5076484;28;45486;-85
2022/03/19 01:31:54;;;;;;;;;2.50;2.50;;;;;;;;5076411;28;45601;-85
2022/03/19 01:34:19;;;;;;;;;3.00;3.00;;;;;;;;5075959;28;45458;-85
2022/03/19 01:36:44;;;;;;;;;3.00;3.00;;;;;;;;5076030;28;45406;-84
2022/03/19 01:39:09;;;;;;;;;4.50;3.00;;;;;;;;5075393;28;45357;-84
2022/03/19 01:41:39;;;;;;;;;4.75;3.00;;;;;;;;5076118;28;45688;-83
2022/03/19 01:44:05;;;;;;;;;3.00;3.00;;;;;;;;5077573;28;45320;-85
2022/03/19 01:46:30;;;;;;;;;5.75;5.75;;;;;;;;5077008;28;45268;-85
2022/03/19 01:48:55;;;;;;;;;3.00;3.00;;;;;;;;5058321;28;45624;-85
2022/03/19 01:51:20;;;;;;;;;5.00;4.00;;;;;;;;5075934;28;46232;-84
2022/03/19 01:53:46;;;;;;;;;3.00;3.00;;;;;;;;5076418;28;45359;-85
2022/03/19 01:56:11;;;;;;;;;7.25;5.50;;;;;;;;5079019;27;45388;-85
2022/03/19 01:58:36;;;;;;;;;4.25;3.75;;;;;;;;5077794;28;45576;-85
2022/03/19 02:01:02;;;;;;;;;5.00;4.75;;;;;;;;5078370;28;45240;-83
2022/03/19 02:03:28;;;;;;;;;5.25;4.25;;;;;;;;5077311;28;45416;-84
2022/03/19 02:05:53;;;;;;;;;8.00;7.00;;;;;;;;5078867;28;45362;-83
2022/03/19 02:08:19;;;;;;;;;5.00;5.00;;;;;;;;5080861;28;45976;-85
2022/03/19 02:10:44;;;;;;;;;4.75;4.75;;;;;;;;5079596;28;46226;-85
2022/03/19 02:13:10;;;;;;;;;3.00;3.00;;;;;;;;5062673;28;45456;-85
2022/03/19 02:15:35;;;;;;;;;3.00;3.00;;;;;;;;5080327;28;45372;-86
2022/03/19 02:18:00;;;;;;;;;3.25;3.25;;;;;;;;5078419;28;45319;-84
2022/03/19 02:20:26;;;;;;;;;5.00;4.00;;;;;;;;5077677;28;45918;-85
2022/03/19 02:25:37;;;;;;;;;4.25;4.25;;;;;;;;5076060;28;45256;-84
2022/03/19 02:28:03;;;;;;;;;6.50;4.50;;;;;;;;5075066;28;45449;-81
2022/03/19 02:30:30;;;;;;;;;4.25;3.25;;;;;;;;5074916;28;45468;-81
2022/03/19 02:32:55;;;;;;;;;5.50;4.00;;;;;;;;5074329;28;45287;-80
2022/03/19 02:35:20;;;;;;;;;4.00;4.00;;;;;;;;5074470;28;45348;-80
2022/03/19 02:37:47;;;;;;;;;7.25;7.00;;;;;;;;5055966;28;45670;-80
2022/03/19 02:40:13;;;;;;;;;5.25;3.25;;;;;;;;5074923;28;46303;-81
2022/03/19 02:42:39;;;;;;;;;7.50;4.00;;;;;;;;5074474;28;45445;-81
2022/03/19 02:45:07;;;;;;;;;5.50;5.00;;;;;;;;5074511;28;45368;-81
2022/03/19 02:47:33;;;;;;;;;7.50;7.50;;;;;;;;5074518;28;45455;-81
2022/03/19 02:49:59;;;;;;;;;6.00;4.75;;;;;;;;5074749;28;46119;-80
2022/03/19 02:52:24;;;;;;;;;3.00;2.50;;;;;;;;5075976;28;45467;-83
2022/03/19 02:54:49;;;;;;;;;4.50;2.50;;;;;;;;5078248;28;45515;-84
2022/03/19 02:57:15;;;;;;;;;3.75;3.75;;;;;;;;5078105;28;45288;-84
2022/03/19 02:59:40;;;;;;;;;4.75;4.75;;;;;;;;5078345;28;47397;-83
2022/03/19 03:02:05;;;;;;;;;5.75;5.75;;;;;;;;5078265;28;45422;-83
2022/03/19 03:04:31;;;;;;;;;6.25;6.25;;;;;;;;5078387;28;45407;-83
2022/03/19 03:06:57;;;;;;;;;9.00;5.50;;;;;;;;5078687;28;45409;-83
2022/03/19 03:09:23;;;;;;;;;5.00;5.00;;;;;;;;5077394;28;47081;-84
2022/03/19 03:11:49;;;;;;;;;4.00;3.00;;;;;;;;5077428;28;45380;-84
2022/03/19 03:14:15;;;;;;;;;6.00;5.00;;;;;;;;5077983;28;45326;-82
2022/03/19 03:16:41;;;;;;;;;5.00;5.00;;;;;;;;5082174;28;45466;-83
2022/03/19 03:19:07;;;;;;;;;7.75;6.00;;;;;;;;5079114;28;45488;-83
2022/03/19 03:21:34;;;;;;;;;7.00;5.00;;;;;;;;5077373;28;45475;-82
2022/03/19 03:23:59;;;;;;;;;6.50;5.50;;;;;;;;5077443;28;45217;-84
2022/03/19 03:26:25;;;;;;;;;7.00;5.75;;;;;;;;5078145;28;45264;-84
2022/03/19 03:28:50;;;;;;;;;9.75;7.75;;;;;;;;5078755;28;47129;-87
2022/03/19 03:31:15;;;;;;;;;5.25;5.25;;;;;;;;5078533;28;45441;-84
2022/03/19 03:33:41;;;;;;;;;5.00;5.00;;;;;;;;5077654;28;45281;-84
2022/03/19 03:36:07;;;;;;;;;6.00;6.00;;;;;;;;5077346;28;45295;-84
2022/03/19 03:38:32;;;;;;;;;8.00;5.00;;;;;;;;5077910;28;47008;-84
2022/03/19 03:40:57;;;;;;;;;4.50;4.50;;;;;;;;5077842;28;45360;-85
2022/03/19 03:43:23;;;;;;;;;6.25;5.75;;;;;;;;5059421;28;45395;-85
2022/03/19 03:45:48;;;;;;;;;9.00;8.00;;;;;;;;5077283;28;45414;-85
2022/03/19 03:48:13;;;;;;;;;8.50;8.50;;;;;;;;5077532;28;45902;-73
2022/03/19 03:50:39;;;;;;;;;8.00;7.75;;;;;;;;5075611;28;45370;-73
2022/03/19 03:53:04;;;;;;;;;8.50;6.00;;;;;;;;5057413;28;45382;-73
2022/03/19 03:55:30;;;;;;;;;14.50;7.00;;;;;;;;5076723;28;45326;-73
2022/03/19 03:57:55;;;;;;;;;9.75;9.75;;;;;;;;5075975;28;46058;-73
2022/03/19 04:00:20;;;;;;;;;7.75;7.50;;;;;;;;5075867;28;45311;-73
2022/03/19 04:02:46;;;;;;;;;8.50;8.50;;;;;;;;5055578;28;45478;-75
2022/03/19 04:05:11;;;;;;;;;10.50;8.50;;;;;;;;5075538;28;45475;-74
2022/03/19 04:07:36;;;;;;;;;11.00;9.25;;;;;;;;5076555;28;46142;-72
2022/03/19 04:10:01;;;;;;;;;10.00;10.00;;;;;;;;5077234;28;45423;-72
2022/03/19 04:12:26;;;;;;;;;13.25;8.75;;;;;;;;5075904;28;45370;-71
2022/03/19 04:14:52;;;;;;;;;14.25;14.25;;;;;;;;5075913;28;45445;-74
2022/03/19 04:17:18;;;;;;;;;14.00;12.00;;;;;;;;5075917;28;46960;-72
2022/03/19 04:19:43;;;;;;;;;12.25;11.00;;;;;;;;5075788;28;45533;-74
2022/03/19 04:22:08;;;;;;;;;21.00;17.25;;;;;;;;5076464;28;45378;-72
2022/03/19 04:24:34;;;;;;;;;13.25;13.25;;;;;;;;5075462;28;45506;-72
2022/03/19 04:26:59;;;;;;;;;13.25;12.00;;;;;;;;5075262;28;47243;-75
2022/03/19 04:29:24;;;;;;;;;12.00;11.00;;;;;;;;5075685;28;45496;-74
2022/03/19 04:31:49;;;;;;;;;14.00;12.25;;;;;;;;5076033;28;45324;-75
2022/03/19 04:34:14;;;;;;;;;12.75;12.75;;;;;;;;5076680;28;45494;-72
2022/03/19 04:36:41;;;;;;;;;9.75;6.75;;;;;;;;5075970;28;45375;-72
2022/03/19 04:39:06;;;;;;;;;19.75;14.75;;;;;;;;5076082;28;45363;-72
2022/03/19 04:41:33;;;;;;;;;12.25;11.25;;;;;;;;5075644;28;45608;-74
2022/03/19 04:43:58;;;;;;;;;14.00;12.25;;;;;;;;5075615;28;45406;-74
2022/03/19 04:46:23;;;;;;;;;14.75;11.75;;;;;;;;5075552;28;47432;-74
2022/03/19 04:48:49;;;;;;;;;16.25;14.75;;;;;;;;5075492;28;45409;-75
2022/03/19 04:51:15;;;;;;;;;13.00;11.50;;;;;;;;5075635;28;45267;-75
2022/03/19 04:53:40;;;;;;;;;19.25;16.75;;;;;;;;5075418;28;45592;-75
2022/03/19 04:56:06;;;;;;;;;20.50;14.25;;;;;;;;5075400;28;46967;-75
2022/03/19 04:58:32;;;;;;;;;15.50;15.50;;;;;;;;5075406;28;45486;-75
2022/03/19 05:00:57;;;;;;;;;17.50;16.25;;;;;;;;5073941;28;45271;-74
2022/03/19 05:03:22;;;;;;;;;19.25;17.50;;;;;;;;5074791;28;45526;-74
2022/03/19 05:05:47;;;;;;;;;19.75;17.25;;;;;;;;5075134;28;47372;-74
2022/03/19 05:08:13;;;;;;;;;23.25;18.00;;;;;;;;5074995;28;45319;-74
2022/03/19 05:13:22;;;;;;;;;25.25;19.00;;;;;;;;5072205;28;45334;-75
2022/03/19 05:15:47;;;;;;;;;24.50;18.75;;;;;;;;5074098;28;46129;-74
2022/03/19 05:18:12;;;;;;;;;23.75;16.50;;;;;;;;5074362;28;45327;-74
2022/03/19 05:20:37;;;;;;;;;22.25;18.00;;;;;;;;5074614;28;45328;-75
2022/03/19 05:23:06;;;;;;;;;20.25;17.00;;;;;;;;5074491;28;45454;-74
2022/03/19 05:25:31;;;;;;;;;20.00;19.00;;;;;;;;5074444;28;46373;-74
2022/03/19 05:27:57;;;;;;;;;23.50;20.50;;;;;;;;5072824;28;45291;-76
2022/03/19 05:30:22;;;;;;;;;22.25;20.00;;;;;;;;5074291;28;45368;-74
2022/03/19 05:32:48;;;;;;;;;22.50;20.00;;;;;;;;5073804;28;46467;-75
2022/03/19 05:35:14;;;;;;;;;26.25;20.75;;;;;;;;5074274;28;46168;-75
2022/03/19 05:37:40;;;;;;;;;28.75;26.00;;;;;;;;5074183;28;45399;-75
2022/03/19 05:40:05;;;;;;;;;27.50;23.50;;;;;;;;5074683;28;45500;-74
2022/03/19 05:42:31;;;;;;;;;29.25;26.50;;;;;;;;5074121;28;45467;-76
2022/03/19 05:44:56;;;;;;;;;24.50;20.25;;;;;;;;5073838;28;46896;-77
2022/03/19 05:47:22;;;;;;;;;33.25;21.75;;;;;;;;5073969;28;45351;-76
2022/03/19 05:49:47;;;;;;;;;28.75;25.00;;;;;;;;5074704;28;45591;-76
2022/03/19 05:52:12;;;;;;;;;24.25;19.75;;;;;;;;5074655;28;45533;-74
2022/03/19 05:54:37;;;;;;;;;29.25;23.00;;;;;;;;5073504;28;47034;-75
2022/03/19 05:57:03;;;;;;;;;28.25;23.75;;;;;;;;5073166;28;45386;-74
2022/03/19 05:59:29;;;;;;;;;25.50;25.25;;;;;;;;5073852;28;45462;-73
2022/03/19 06:01:54;;;;;;;;;37.50;32.00;;;;;;;;5073421;28;45433;-73
2022/03/19 06:04:19;;;;;;;;;30.75;25.75;;;;;;;;5055427;28;48028;-73
2022/03/19 06:06:44;;;;;;;;;30.75;26.75;;;;;;;;5073821;28;45357;-72
2022/03/19 06:09:10;;;;;;;;;28.25;23.50;;;;;;;;5073192;28;45375;-72
2022/03/19 06:11:36;;;;;;;;;32.50;30.25;;;;;;;;5073350;28;45473;-72
2022/03/19 06:14:01;;;;;;;;;30.25;24.75;;;;;;;;5073484;28;47160;-72
2022/03/19 06:16:26;;;;;;;;;32.75;29.00;;;;;;;;5073376;28;45282;-74
2022/03/19 06:18:51;;;;;;;;;27.75;25.00;;;;;;;;5074190;28;45515;-74
2022/03/19 06:21:22;;;;;;;;;30.25;23.75;;;;;;;;5072747;28;45439;-74
2022/03/19 06:23:49;;;;;;;;;33.75;29.50;;;;;;;;5072318;28;46259;-75
2022/03/19 06:26:15;;;;;;;;;27.25;25.50;;;;;;;;5071745;28;45356;-74
2022/03/19 06:28:40;;;;;;;;;31.75;29.25;;;;;;;;5072275;28;45405;-74
2022/03/19 06:31:06;;;;;;;;;57.00;45.75;;;;;;;;5073223;28;45311;-73
2022/03/19 06:33:31;;;;;;;;;37.50;32.50;;;;;;;;5072738;28;45412;-73
2022/03/19 06:38:40;;;;;;;;;46.75;37.50;;;;;;;;5072530;28;45281;-74
2022/03/19 06:41:05;;;;;;;;;52.75;41.50;;;;;;;;5073241;28;45350;-75
2022/03/19 06:43:31;;;;;;;;;38.75;33.00;;;;;;;;5072457;28;46052;-74
2022/03/19 06:45:58;;;;;;;;;39.25;30.75;;;;;;;;5072954;28;45349;-75
2022/03/19 06:48:23;;;;;;;;;48.75;36.50;;;;;;;;5072302;28;45656;-74
2022/03/19 06:50:50;;;;;;;;;40.25;36.75;;;;;;;;5072336;28;45364;-75
2022/03/19 06:53:15;;;;;;;;;42.25;35.25;;;;;;;;5072285;28;46277;-74
2022/03/19 06:55:40;;;;;;;;;43.75;35.00;;;;;;;;5072192;28;45297;-75
2022/03/19 06:58:05;;;;;;;;;45.25;35.75;;;;;;;;5073649;28;45472;-74
2022/03/19 07:00:31;;;;;;;;;54.25;39.50;;;;;;;;5072855;28;45413;-74
2022/03/19 07:02:56;;;;;;;;;51.25;37.50;;;;;;;;5072307;28;47089;-76
2022/03/19 07:05:22;;;;;;;;;51.00;39.75;;;;;;;;5072851;28;45439;-73
2022/03/19 07:07:47;;;;;;;;;49.00;40.25;;;;;;;;5072793;28;45415;-75
2022/03/19 07:10:13;;;;;;;;;50.50;40.50;;;;;;;;5073198;28;45395;-75
2022/03/19 07:12:43;;;;;;;;;51.00;38.50;;;;;;;;5072245;28;46122;-75
2022/03/19 07:15:10;;;;;;;;;44.00;37.00;;;;;;;;5071840;28;45422;-74
2022/03/19 07:17:35;;;;;;;;;42.25;36.25;;;;;;;;5072367;28;45416;-74
2022/03/19 07:20:01;;;;;;;;;51.25;42.00;;;;;;;;5066793;27;45514;-73
2022/03/19 07:22:26;;;;;;;;;47.75;39.25;;;;;;;;5070895;28;46111;-74
2022/03/19 07:24:51;;;;;;;;;47.75;39.25;;;;;;;;5071937;28;45458;-75
2022/03/19 07:27:16;;;;;;;;;47.75;37.75;;;;;;;;5070139;28;45587;-75
2022/03/19 07:29:41;;;;;;;;;50.50;42.00;;;;;;;;5070197;28;45451;-74
2022/03/19 07:32:07;;;;;;;;;45.75;37.75;;;;;;;;5070311;28;47397;-76
2022/03/19 07:34:34;;;;;;;;;50.75;41.00;;;;;;;;5071572;28;45304;-74
2022/03/19 07:37:00;;;;;;;;;52.00;42.75;;;;;;;;5070200;28;45595;-75
2022/03/19 07:39:26;;;;;;;;;57.50;43.00;;;;;;;;5072693;28;45214;-75
2022/03/19 07:41:55;;;;;;;;;58.50;44.75;;;;;;;;5072583;28;45479;-74
2022/03/19 07:44:21;;;;;;;;;58.50;43.25;;;;;;;;5072890;28;45407;-75
2022/03/19 07:46:46;;;;;;;;;53.75;41.25;;;;;;;;5072905;28;45366;-74
2022/03/19 07:49:11;;;;;;;;;54.25;44.00;;;;;;;;5075002;28;45466;-73
2022/03/19 07:51:37;;;;;;;;;54.75;45.00;;;;;;;;5072365;28;45498;-73
2022/03/19 07:54:02;;;;;;;;;54.50;41.25;;;;;;;;5072160;28;45480;-72
2022/03/19 07:56:27;;;;;;;;;56.50;44.00;;;;;;;;5073297;28;45522;-72
2022/03/19 07:58:53;;;;;;;;;56.75;44.50;;;;;;;;5075009;27;45354;-74
2022/03/19 08:01:18;;;;;;;;;59.00;44.50;;;;;;;;5074463;28;45512;-73
2022/03/19 08:03:45;;;;;;;;;54.00;42.50;;;;;;;;5073555;28;45347;-73
2022/03/19 08:06:10;;;;;;;;;52.00;44.00;;;;;;;;5055964;28;45532;-74
2022/03/19 08:08:37;;;;;;;;;56.75;44.50;;;;;;;;5071931;28;45498;-74
2022/03/19 08:11:03;;;;;;;;;60.75;46.75;;;;;;;;5071366;27;46648;-74
2022/03/19 08:13:28;;;;;;;;;53.00;42.50;;;;;;;;5073098;28;45549;-75
2022/03/19 08:15:53;;;;;;;;;55.75;44.75;;;;;;;;5074288;28;45339;-72
2022/03/19 08:18:19;;;;;;;;;63.25;46.75;;;;;;;;5072454;28;45415;-72
2022/03/19 08:20:46;;;;;;;;;62.75;49.75;;;;;;;;5055242;27;47558;-74
2022/03/19 08:23:12;;;;;;;;;59.00;46.25;;;;;;;;5071221;27;45588;-74
2022/03/19 08:25:38;;;;;;;;;62.50;48.00;;;;;;;;5073178;27;45502;-72
2022/03/19 08:28:03;;;;;;;;;61.25;48.75;;;;;;;;5075548;27;46386;-73
2022/03/19 08:30:28;;;;;;;;;57.50;42.50;;;;;;;;5072546;28;47639;-73
2022/03/19 08:32:54;;;;;;;;;60.50;48.00;;;;;;;;5073431;28;45507;-72
2022/03/19 08:35:19;;;;;;;;;54.50;44.50;;;;;;;;5072243;28;45525;-75
2022/03/19 08:37:44;;;;;;;;;57.50;45.75;;;;;;;;5075698;27;45259;-72
2022/03/19 08:40:16;;;;;;;;;57.25;46.50;;;;;;;;5074640;27;46116;-72
2022/03/19 08:42:42;;;;;;;;;54.00;42.75;;;;;;;;5072464;28;45418;-73
2022/03/19 08:45:08;;;;;;;;;58.75;46.00;;;;;;;;5071269;27;45452;-74
2022/03/19 08:47:33;;;;;;;;;57.50;46.25;;;;;;;;5072263;28;45611;-74
2022/03/19 08:49:59;;;;;;;;;53.75;43.25;;;;;;;;5072745;28;45948;-74
2022/03/19 08:52:26;;;;;;;;;58.25;46.25;;;;;;;;5073756;28;45406;-74
2022/03/19 08:54:51;;;;;;;;;63.75;48.50;;;;;;;;5074184;28;45417;-72
2022/03/19 08:57:16;;;;;;;;;55.00;43.50;;;;;;;;5071458;28;45562;-72
2022/03/19 08:59:41;;;;;;;;;59.75;48.75;;;;;;;;5073247;28;45449;-74
2022/03/19 09:02:08;;;;;;;;;60.25;48.00;;;;;;;;5070676;28;45500;-73
2022/03/19 09:04:33;;;;;;;;;59.00;47.00;;;;;;;;5071907;28;45394;-72
2022/03/19 09:06:58;;;;;;;;;60.00;46.75;;;;;;;;5074043;28;45480;-72
2022/03/19 09:09:24;;;;;;;;;55.50;45.00;;;;;;;;5070570;28;48393;-72
2022/03/19 09:11:49;;;;;;;;;63.00;49.00;;;;;;;;5071170;28;45554;-72
2022/03/19 09:14:16;;;;;;;;;58.50;46.00;;;;;;;;5071304;28;45402;-72
2022/03/19 09:16:41;;;;;;;;;55.75;44.00;;;;;;;;5071702;27;45578;-72
2022/03/19 09:19:06;;;;;;;;;59.75;46.00;;;;;;;;5071853;28;47116;-72
2022/03/19 09:21:32;;;;;;;;;61.75;47.50;;;;;;;;5070985;28;45549;-72
2022/03/19 09:23:57;;;;;;;;;60.00;48.00;;;;;;;;5069576;27;45583;-72
2022/03/19 09:26:23;;;;;;;;;62.50;47.50;;;;;;;;5070211;28;45469;-73
2022/03/19 09:28:48;;;;;;;;;62.50;50.00;;;;;;;;5069912;27;46239;-72
2022/03/19 09:31:16;;;;;;;;;55.75;45.00;;;;;;;;5072683;28;45183;-72
2022/03/19 09:33:42;;;;;;;;;56.50;47.00;;;;;;;;5072110;28;45496;-71
2022/03/19 09:36:08;;;;;;;;;63.25;48.75;;;;;;;;5069610;28;45432;-72
2022/03/19 09:38:33;;;;;;;;;65.50;49.75;;;;;;;;5069455;28;46308;-73
2022/03/19 09:40:59;;;;;;;;;58.75;44.25;;;;;;;;5071523;28;45450;-74
2022/03/19 09:43:25;;;;;;;;;56.75;44.75;;;;;;;;5071802;28;45254;-72
2022/03/19 09:45:50;;;;;;;;;57.25;46.00;;;;;;;;5072402;28;45410;-72
2022/03/19 09:48:16;;;;;;;;;57.25;46.75;;;;;;;;5070676;28;45713;-73
2022/03/19 09:50:41;;;;;;;;;51.50;43.25;;;;;;;;5069311;28;45275;-73
2022/03/19 09:53:08;;;;;;;;;56.00;45.00;;;;;;;;5071643;28;45289;-74
2022/03/19 09:55:34;;;;;;;;;61.50;45.75;;;;;;;;5072400;27;45618;-74
2022/03/19 09:58:01;;;;;;;;;53.75;41.50;;;;;;;;5071044;28;46293;-71
2022/03/19 10:00:26;;;;;;;;;60.00;46.50;;;;;;;;5068851;28;45372;-71
2022/03/19 10:02:55;;;;;;;;;58.25;44.50;;;;;;;;5067791;28;45915;-71
2022/03/19 10:10:48;;;;;;;;;55.00;45.50;;;;;;;;5066113;28;45329;-71
2022/03/19 10:13:14;;;;;;;;;57.25;43.25;;;;;;;;5064954;28;45373;-71
2022/03/19 10:15:39;;;;;;;;;50.50;42.00;;;;;;;;5068331;28;45545;-71
2022/03/19 10:18:07;;;;;;;;;59.00;48.00;;;;;;;;5068482;28;46646;-71
2022/03/19 10:20:34;;;;;;;;;53.00;41.75;;;;;;;;5068109;28;45546;-72
2022/03/19 10:22:59;;;;;;;;;57.25;45.00;;;;;;;;5068392;28;45284;-72
2022/03/19 10:25:24;;;;;;;;;54.00;43.75;;;;;;;;5070503;28;45419;-71
2022/03/19 10:27:50;;;;;;;;;56.00;42.25;;;;;;;;5068562;28;45379;-72
2022/03/19 10:30:16;;;;;;;;;54.00;43.50;;;;;;;;5068122;28;45470;-70
2022/03/19 10:32:44;;;;;;;;;48.75;40.00;;;;;;;;5068171;28;45631;-70
2022/03/19 10:35:25;;;;;;;;;60.00;46.50;;;;;;;;5068377;28;45732;-70
2022/03/19 10:37:50;;;;;;;;;52.75;42.50;;;;;;;;5052298;27;47082;-75
2022/03/19 10:40:15;;;;;;;;;53.50;43.25;;;;;;;;5061245;27;45591;-73
2022/03/19 10:42:41;;;;;;;;;50.25;42.00;;;;;;;;5066461;28;45598;-72
2022/03/19 10:45:08;;;;;;;;;50.75;40.75;;;;;;;;5067962;28;45405;-70
2022/03/19 10:48:00;;;;;;;;;40.00;35.50;;;;;;;;5069565;28;47622;-71
2022/03/19 10:50:25;;;;;;;;;51.50;40.75;;;;;;;;5060247;28;45423;-72
2022/03/19 10:52:51;;;;;;;;;44.00;37.00;;;;;;;;5065545;28;45503;-70
2022/03/19 10:55:17;;;;;;;;;52.50;42.25;;;;;;;;5070872;28;45540;-72
2022/03/19 10:57:42;;;;;;;;;50.75;40.50;;;;;;;;5071997;27;46405;-71
2022/03/19 11:00:09;;;;;;;;;48.75;40.25;;;;;;;;5072923;27;45507;-71
2022/03/19 11:02:38;;;;;;;;;53.00;40.75;;;;;;;;5072592;27;45572;-71
2022/03/19 11:05:05;;;;;;;;;53.75;43.50;;;;;;;;5072157;27;45474;-71
2022/03/19 11:07:32;;;;;;;;;52.75;42.75;;;;;;;;5072281;27;46502;-72
2022/03/19 11:09:59;;;;;;;;;48.25;39.75;;;;;;;;5070905;27;45451;-72
2022/03/19 11:12:27;;;;;;;;;49.00;37.25;;;;;;;;5071370;27;45367;-71
2022/03/19 11:14:54;;;;;;;;;56.75;43.75;;;;;;;;5072655;28;45493;-70
2022/03/19 11:17:28;;;;;;;;;48.25;41.25;;;;;;;;5075026;28;46119;-70
2022/03/19 11:20:11;;;;;;;;;51.25;40.50;;;;;;;;5058340;28;45243;-71
2022/03/19 11:22:40;;;;;;;;;47.50;37.75;;;;;;;;5071467;28;45541;-70
2022/03/19 11:25:11;;;;;;;;;49.50;39.75;;;;;;;;5074982;28;45413;-70
2022/03/19 11:27:37;;;;;;;;;52.50;41.50;;;;;;;;5074155;28;47449;-70
2022/03/19 11:30:04;;;;;;;;;47.00;38.25;;;;;;;;5071896;28;45609;-72
2022/03/19 11:32:30;;;;;;;;;45.00;36.25;;;;;;;;5074007;28;45443;-71
2022/03/19 11:34:59;;;;;;;;;36.75;32.00;;;;;;;;5074155;28;45288;-72
2022/03/19 11:37:44;;;;;;;;;42.50;36.25;;;;;;;;5074162;28;45889;-72
2022/03/19 11:40:12;;;;;;;;;43.75;35.50;;;;;;;;5073233;28;45381;-72
2022/03/19 11:43:00;;;;;;;;;45.25;36.75;;;;;;;;5074957;28;45429;-73
2022/03/19 11:45:26;;;;;;;;;46.25;33.50;;;;;;;;5074399;28;45402;-73
2022/03/19 11:47:51;;;;;;;;;42.75;34.50;;;;;;;;5075453;28;45262;-72
2022/03/19 11:50:23;;;;;;;;;41.00;34.50;;;;;;;;5074617;28;45352;-72
2022/03/19 11:52:49;;;;;;;;;36.50;30.75;;;;;;;;5059886;27;45361;-72
2022/03/19 11:55:17;;;;;;;;;43.00;35.00;;;;;;;;5074461;28;45487;-72
2022/03/19 11:57:45;;;;;;;;;48.00;39.00;;;;;;;;5073529;28;46627;-73
2022/03/19 12:00:12;;;;;;;;;44.75;35.25;;;;;;;;5072627;28;45354;-71
2022/03/19 12:02:56;;;;;;;;;47.25;38.50;;;;;;;;5074021;28;45550;-73
2022/03/19 12:05:26;;;;;;;;;47.25;38.25;;;;;;;;5073541;28;45309;-72
2022/03/19 12:07:54;;;;;;;;;46.25;37.75;;;;;;;;5058837;27;45717;-72
2022/03/19 12:10:24;;;;;;;;;42.50;36.50;;;;;;;;5074606;28;45399;-72
2022/03/19 12:12:49;;;;;;;;;43.50;34.50;;;;;;;;5073995;28;45465;-72
2022/03/19 12:15:33;;;;;;;;;44.00;36.50;;;;;;;;5074903;28;45405;-74
2022/03/19 12:18:17;;;;;;;;;44.75;35.50;;;;;;;;5074358;28;45549;-79
2022/03/19 12:20:42;;;;;;;;;31.50;26.25;;;;;;;;5074926;28;45370;-75
2022/03/19 12:23:08;;;;;;;;;42.50;36.00;;;;;;;;5076142;28;45404;-75
2022/03/19 12:25:34;;;;;;;;;49.00;40.75;;;;;;;;5075338;28;45457;-76
2022/03/19 12:27:59;;;;;;;;;56.00;44.00;;;;;;;;5073882;28;45435;-76
2022/03/19 12:30:25;;;;;;;;;42.75;34.25;;;;;;;;5054385;28;45466;-76
2022/03/19 12:32:55;;;;;;;;;54.75;45.00;;;;;;;;5074202;28;45394;-88
2022/03/19 12:35:24;;;;;;;;;46.50;39.25;;;;;;;;5073847;28;45627;-83
2022/03/19 12:37:51;;;;;;;;;48.50;38.25;;;;;;;;5058112;27;45344;-85
2022/03/19 12:40:18;;;;;;;;;47.00;37.75;;;;;;;;5070238;28;45386;-83
2022/03/19 12:42:49;;;;;;;;;37.75;34.00;;;;;;;;5073519;28;45639;-83
2022/03/19 12:45:14;;;;;;;;;44.25;35.00;;;;;;;;5075013;28;45292;-89
2022/03/19 12:47:39;;;;;;;;;39.50;33.00;;;;;;;;5075687;28;45762;-90
2022/03/19 12:50:04;;;;;;;;;29.50;27.00;;;;;;;;5077869;28;45521;-83
2022/03/19 12:52:33;;;;;;;;;39.50;32.75;;;;;;;;5074287;28;45361;-84
2022/03/19 12:55:00;;;;;;;;;41.25;33.00;;;;;;;;5074267;28;45343;-84
2022/03/19 12:57:25;;;;;;;;;33.50;31.75;;;;;;;;5075939;27;46407;-85
2022/03/19 12:59:57;;;;;;;;;37.50;34.25;;;;;;;;5073511;28;45370;-83
2022/03/19 13:02:26;;;;;;;;;43.00;36.00;;;;;;;;5074284;28;45218;-89
2022/03/19 13:04:52;;;;;;;;;44.00;33.00;;;;;;;;5073110;28;45617;-85
2022/03/19 13:07:18;;;;;;;;;35.75;32.00;;;;;;;;5074058;28;45466;-86
2022/03/19 13:09:43;;;;;;;;;39.00;33.75;;;;;;;;5068096;28;45397;-72
2022/03/19 13:12:11;;;;;;;;;43.50;36.75;;;;;;;;5068427;28;45491;-71
2022/03/19 13:14:37;;;;;;;;;40.75;35.00;;;;;;;;5069206;28;45569;-73
2022/03/19 13:17:03;;;;;;;;;9.00;8.50;;;;;;;;5068516;28;45502;-74
2022/03/19 13:19:32;;;;;;;;;37.25;32.75;;;;;;;;5072193;28;45462;-75
2022/03/19 13:21:58;;;;;;;;;35.75;33.00;;;;;;;;5073575;28;45396;-74
2022/03/19 13:24:25;;;;;;;;;39.50;33.25;;;;;;;;5071440;28;45385;-72
2022/03/19 13:26:51;;;;;;;;;37.75;34.00;;;;;;;;5071012;28;47173;-72
2022/03/19 13:29:18;;;;;;;;;42.50;34.75;;;;;;;;5071761;28;45486;-71
2022/03/19 13:31:43;;;;;;;;;39.50;32.25;;;;;;;;5072134;28;45498;-73
2022/03/19 13:34:15;;;;;;;;;41.75;34.75;;;;;;;;5073624;28;45365;-74
2022/03/19 13:36:43;;;;;;;;;43.00;36.00;;;;;;;;5069251;28;46028;-76
2022/03/19 13:39:17;;;;;;;;;43.50;37.00;;;;;;;;5076300;27;45381;-76
2022/03/19 13:41:43;;;;;;;;;42.00;35.75;;;;;;;;5071261;28;45281;-74
2022/03/19 13:44:09;;;;;;;;;47.50;39.25;;;;;;;;5070501;28;45508;-77
2022/03/19 13:46:34;;;;;;;;;35.50;32.25;;;;;;;;5071992;28;46764;-75
2022/03/19 13:49:10;;;;;;;;;44.25;36.50;;;;;;;;5073791;28;45293;-74
2022/03/19 13:51:45;;;;;;;;;42.25;35.50;;;;;;;;5070675;28;45608;-78
2022/03/19 13:54:11;;;;;;;;;39.75;34.25;;;;;;;;5073534;28;45580;-78
2022/03/19 13:56:48;;;;;;;;;39.25;32.25;;;;;;;;5054900;28;46186;-78
2022/03/19 13:59:23;;;;;;;;;45.25;37.25;;;;;;;;5073524;28;45382;-81
2022/03/19 14:01:49;;;;;;;;;35.25;31.75;;;;;;;;5057232;28;45481;-78
2022/03/19 14:04:17;;;;;;;;;36.50;32.00;;;;;;;;5073492;28;45926;-77
2022/03/19 14:06:43;;;;;;;;;32.00;30.25;;;;;;;;5072955;28;47609;-80
2022/03/19 14:09:09;;;;;;;;;43.50;34.50;;;;;;;;5073275;28;45513;-81
2022/03/19 14:11:36;;;;;;;;;37.75;34.00;;;;;;;;5074548;28;45549;-81
2022/03/19 14:14:01;;;;;;;;;44.25;36.00;;;;;;;;5072772;28;45354;-81
2022/03/19 14:16:26;;;;;;;;;45.00;37.25;;;;;;;;5073463;28;46312;-82
2022/03/19 14:18:57;;;;;;;;;45.50;35.75;;;;;;;;5075228;28;45469;-82
2022/03/19 14:21:22;;;;;;;;;39.75;33.25;;;;;;;;5074161;28;45476;-81
2022/03/19 14:23:47;;;;;;;;;42.25;34.75;;;;;;;;5073692;28;45312;-80
2022/03/19 14:26:15;;;;;;;;;41.75;32.50;;;;;;;;5072936;28;47095;-80
2022/03/19 14:28:40;;;;;;;;;44.00;37.75;;;;;;;;5072997;28;45269;-79
2022/03/19 14:31:06;;;;;;;;;40.00;35.50;;;;;;;;5074460;28;45418;-80
2022/03/19 14:33:31;;;;;;;;;45.75;38.00;;;;;;;;5052936;28;45556;-80
2022/03/19 14:36:02;;;;;;;;;50.00;41.25;;;;;;;;5073456;28;45459;-79